Home > Products > Valid Products > TAF

000
FTUS43 KICT 161100
TAFHUT
TAF
KHUT 161125Z 1612/1712 16018G25KT P6SM BKN250 WS020/19045KT
     FM161400 20025G35KT P6SM SCT250
     FM161900 23017G26KT P6SM BKN250
     FM162100 25012KT P6SM BKN020
     FM170000 34010KT P6SM OVC200
     FM170300 02014KT P6SM OVC060=



000
FTUS43 KICT 161100
TAFSLN
TAF
KSLN 161125Z 1612/1712 19024G32KT P6SM BKN250 WS020/19045KT
     FM161900 27015G24KT P6SM SCT250
     FM162100 33016G22KT P6SM BKN250
     FM170200 02013KT P6SM OVC120=



000
FTUS43 KICT 161100
TAFICT
TAF
KICT 161125Z 1612/1712 17018G25KT P6SM BKN250 WS020/17045KT
     FM161400 19027G36KT P6SM SCT250
     FM162100 23016G23KT P6SM BKN250
     FM170000 21012KT P6SM BKN250
     FM170500 02014KT P6SM BKN060=



000
FTUS43 KICT 161100
TAFCNU
TAF
KCNU 161125Z 1612/1712 16013KT P6SM BKN250 WS020/18040KT
     FM161500 19026G36KT P6SM SCT250
     FM162200 19019G28KT P6SM BKN250
     FM170100 17013KT P6SM BKN250
     FM170700 VRB04KT P6SM OVC150
     FM171100 02012KT P6SM OVC120=



000
FTUS43 KICT 161100
TAFRSL
TAF
KRSL 161125Z 1612/1712 17024G32KT P6SM BKN250
     FM161500 20015G22KT P6SM BKN250
     FM161700 33014G20KT P6SM BKN150
     FM170000 02013KT P6SM OVC120=



000
FTUS43 KICT 160700 AAA
TAFRSL
TAF AMD
KRSL 160722Z 1607/1706 17021G31KT P6SM BKN250
     FM161500 24016G24KT P6SM BKN250
     FM161800 34017G27KT P6SM BKN250
     FM170100 02013KT P6SM OVC200=



000
FTUS43 KICT 160500
TAFCNU
TAF
KCNU 160522Z 1606/1706 16013KT P6SM BKN250 WS020/18040KT
     FM161500 19026G36KT P6SM SCT250
     FM162200 19019G28KT P6SM BKN250
     FM170100 17013KT P6SM BKN250=



000
FTUS43 KICT 160500
TAFICT
TAF
KICT 160522Z 1606/1706 17016G21KT P6SM BKN250 WS020/17045KT
     FM161500 19027G36KT P6SM SCT250
     FM161900 23018G28KT P6SM BKN250
     FM170000 18012KT P6SM BKN250=



000
FTUS43 KICT 160500
TAFRSL
TAF
KRSL 160522Z 1606/1706 17017G25KT P6SM BKN250
     FM161500 24016G24KT P6SM BKN250
     FM161800 34017G27KT P6SM BKN250
     FM170100 02013KT P6SM OVC200=



000
FTUS43 KICT 160500
TAFSLN
TAF
KSLN 160522Z 1606/1706 19015G22KT P6SM BKN250 WS020/19045KT
     FM161500 21024G33KT P6SM BKN250
     FM161900 27015G24KT P6SM SCT250
     FM162300 34016KT P6SM BKN250
     FM170200 02013KT P6SM OVC200=



000
FTUS43 KICT 160500
TAFHUT
TAF
KHUT 160522Z 1606/1706 16015G21KT P6SM BKN250 WS020/19045KT
     FM161500 20025G35KT P6SM SCT250
     FM161900 23017G26KT P6SM BKN250
     FM170000 34010KT P6SM OVC200=



000
FTUS43 KICT 152300
TAFCNU
TAF
KCNU 152328Z 1600/1624 17013KT P6SM BKN250
     FM161500 19026G35KT P6SM SCT250=



000
FTUS43 KICT 152300
TAFSLN
TAF
KSLN 152328Z 1600/1624 19015G24KT P6SM BKN250
     FM160200 17015G23KT P6SM SCT250
     FM161500 21024G33KT P6SM BKN250
     FM161900 27015G24KT P6SM BKN250
     FM162300 34016KT P6SM SCT250=



000
FTUS43 KICT 152300
TAFHUT
TAF
KHUT 152328Z 1600/1624 20016G24KT P6SM BKN250
     FM160200 17015G22KT P6SM SCT250
     FM161500 20025G35KT P6SM SCT250
     FM161900 23017G26KT P6SM BKN250=



000
FTUS43 KICT 152300
TAFICT
TAF
KICT 152328Z 1600/1624 20013KT P6SM BKN250
     FM160200 17016G22KT P6SM SCT250
     FM161500 19026G35KT P6SM SCT250
     FM161900 23018G28KT P6SM BKN250=



000
FTUS43 KICT 152300
TAFRSL
TAF
KRSL 152328Z 1600/1624 18021G29KT P6SM BKN250
     FM160200 18018G25KT P6SM SCT250
     FM161500 24016G24KT P6SM BKN250
     FM161800 34017G27KT P6SM BKN250=



000
FTUS43 KICT 152000 AAA
TAFSLN
TAF AMD
KSLN 152046Z 1521/1618 20014G26KT P6SM BKN250
     FM160300 17015G21KT P6SM SCT250
     FM161500 21025G35KT P6SM SCT250=



000
FTUS43 KICT 152000 AAA
TAFICT
TAF AMD
KICT 152045Z 1521/1618 20013G24KT P6SM BKN250
     FM160300 17016G24KT P6SM SCT250
     FM161500 19026G35KT P6SM FEW250=



000
FTUS43 KICT 152000 AAA
TAFHUT
TAF AMD
KHUT 152042Z 1521/1618 22016G25KT P6SM BKN250
     FM160300 17015G22KT P6SM SCT250
     FM161500 20025G35KT P6SM SCT250=



000
FTUS43 KICT 151900 AAA
TAFRSL
TAF AMD
KRSL 151932Z 1520/1618 21018G28KT P6SM BKN250
     FM160300 17020G26KT P6SM FEW250
     FM161500 24020G30KT P6SM SCT250=



000
FTUS43 KICT 151700
TAFRSL
TAF
KRSL 151735Z 1518/1618 20016G25KT P6SM SKC
     FM160300 17020G26KT P6SM FEW250
     FM161500 24020G30KT P6SM SCT250=



000
FTUS43 KICT 151700
TAFICT
TAF
KICT 151735Z 1518/1618 20013G24KT P6SM SKC
     FM160300 17016G24KT P6SM SCT250
     FM161500 19026G35KT P6SM FEW250=



000
FTUS43 KICT 151700
TAFCNU
TAF
KCNU 151735Z 1518/1618 VRB04KT P6SM SKC
     FM152100 19012KT P6SM SKC
     FM160600 17014KT P6SM SCT250
     FM161500 19026G35KT P6SM SCT250=



000
FTUS43 KICT 151700
TAFSLN
TAF
KSLN 151735Z 1518/1618 20014G22KT P6SM SKC
     FM160300 17015G21KT P6SM SCT250
     FM161500 21025G35KT P6SM SCT250=



000
FTUS43 KICT 151700
TAFHUT
TAF
KHUT 151735Z 1518/1618 23010KT P6SM SKC
     FM152100 20016G25KT P6SM SKC
     FM160300 17015G22KT P6SM SCT250
     FM161500 20025G35KT P6SM SCT250=



000
FTUS43 KICT 151100
TAFCNU
TAF
KCNU 151120Z 1512/1612 VRB04KT P6SM SKC
     FM151900 22012KT P6SM SKC
     FM160000 17011KT P6SM SCT250=



000
FTUS43 KICT 151100
TAFRSL
TAF
KRSL 151120Z 1512/1612 23006KT P6SM SKC
     FM151500 22012KT P6SM SKC
     FM151700 21016G25KT P6SM SKC
     FM152000 19022G32KT P6SM SCT250
     FM160100 17015G22KT P6SM SCT250
     FM160500 18018G25KT P6SM SCT250=



000
FTUS43 KICT 151100
TAFICT
TAF
KICT 151120Z 1512/1612 31006KT P6SM SKC
     FM151500 23008KT P6SM SKC
     FM151900 20015G24KT P6SM SKC
     FM160100 17016G24KT P6SM SCT250=



000
FTUS43 KICT 151100
TAFHUT
TAF
KHUT 151120Z 1512/1612 31006KT P6SM SKC
     FM151500 23010KT P6SM SKC
     FM151900 20016G25KT P6SM SKC
     FM160100 17015G22KT P6SM SCT250=



000
FTUS43 KICT 151100
TAFSLN
TAF
KSLN 151120Z 1512/1612 23006KT P6SM SKC
     FM151500 22011KT P6SM SKC
     FM151800 20016G24KT P6SM SKC
     FM152100 19020G28KT P6SM SCT250
     FM160100 17015G21KT P6SM SCT250
     FM160700 18018G25KT P6SM SCT250=



000
FTUS43 KICT 150500
TAFHUT
TAF
KHUT 150522Z 1506/1606 29006KT P6SM SKC
     FM151500 23010KT P6SM SKC
     FM151900 19016G25KT P6SM SKC
     FM160100 17015G20KT P6SM SCT250=



000
FTUS43 KICT 150500
TAFRSL
TAF
KRSL 150522Z 1506/1606 26006KT P6SM SKC
     FM151500 23012KT P6SM SKC
     FM151700 21016G25KT P6SM SKC
     FM152000 19022G32KT P6SM SCT250
     FM160100 17015G22KT P6SM SCT250=



000
FTUS43 KICT 150500
TAFSLN
TAF
KSLN 150522Z 1506/1606 28006KT P6SM SKC
     FM151500 22011KT P6SM SKC
     FM151800 20016G24KT P6SM SKC
     FM152000 19018G28KT P6SM SCT250
     FM160100 17015G21KT P6SM SCT250=



000
FTUS43 KICT 150500
TAFICT
TAF
KICT 150522Z 1506/1606 28006KT P6SM SKC
     FM151500 23008KT P6SM SKC
     FM151900 19015G24KT P6SM SKC
     FM160100 17016KT P6SM SCT250=



000
FTUS43 KICT 150500
TAFCNU
TAF
KCNU 150522Z 1506/1606 28004KT P6SM SKC
     FM152100 22012KT P6SM SKC
     FM160000 17011KT P6SM SCT250=



000
FTUS43 KICT 142300
TAFCNU
TAF
KCNU 142325Z 1500/1524 34014G20KT P6SM SKC
     FM150100 31004KT P6SM SKC
     FM152100 22012KT P6SM SKC=



000
FTUS43 KICT 142300
TAFICT
TAF
KICT 142325Z 1500/1524 33015G21KT P6SM FEW080
     FM150100 30007KT P6SM FEW100
     FM151500 24012KT P6SM SKC
     FM152000 19015G24KT P6SM SKC=



000
FTUS43 KICT 142300
TAFHUT
TAF
KHUT 142325Z 1500/1524 33014G22KT P6SM FEW080
     FM150100 30007KT P6SM FEW100
     FM151500 24011KT P6SM SKC
     FM151900 19016G25KT P6SM SKC=



000
FTUS43 KICT 142300
TAFSLN
TAF
KSLN 142325Z 1500/1524 32018G30KT P6SM SCT060 BKN100
     FM150100 30008KT P6SM SCT060
     FM151500 23011KT P6SM SKC
     FM151900 20018G26KT P6SM SKC=



000
FTUS43 KICT 142300
TAFRSL
TAF
KRSL 142325Z 1500/1524 30014G20KT P6SM SCT070
     FM150100 29007KT P6SM FEW080
     FM151500 24013KT P6SM SKC
     FM151800 20021G32KT P6SM SKC=



000
FTUS43 KICT 141700
TAFCNU
TAF
KCNU 141720Z 1418/1518 34016G23KT P6SM BKN060
     FM150100 VRB03KT P6SM SKC
     FM151500 33006KT P6SM SKC=



000
FTUS43 KICT 141700
TAFICT
TAF
KICT 141720Z 1418/1518 35020G30KT P6SM SCT250
     FM150100 32009KT P6SM SKC
     FM151500 22012KT P6SM SKC=



000
FTUS43 KICT 141700
TAFSLN
TAF
KSLN 141720Z 1418/1518 35018G30KT P6SM SKC
     FM150100 30008KT P6SM SKC
     FM151500 21014G22KT P6SM SKC=



000
FTUS43 KICT 141700
TAFHUT
TAF
KHUT 141720Z 1418/1518 36023G33KT P6SM SCT250
     FM150100 32009KT P6SM SKC
     FM151500 22012KT P6SM SKC=



000
FTUS43 KICT 141700
TAFRSL
TAF
KRSL 141720Z 1418/1518 34018G30KT P6SM SKC
     FM150100 30008KT P6SM SKC
     FM151500 21014G22KT P6SM SKC=



000
FTUS43 KICT 141600 AAA
TAFCNU
TAF AMD
KCNU 141655Z 1417/1512 34020G30KT 5SM -SN OVC016
     FM141800 34018G25KT P6SM OVC040
     FM150100 VRB03KT P6SM SKC=



000
FTUS43 KICT 141300 AAA
TAFHUT
TAF AMD
KHUT 141308Z 1413/1512 35018G26KT P6SM OVC040
     FM141400 36023G33KT P6SM BKN060
     FM150000 32009KT P6SM SCT100
     FM150500 27006KT P6SM SKC=



000
FTUS43 KICT 141300 AAA
TAFICT
TAF AMD
KICT 141307Z 1413/1512 35022G31KT P6SM OVC070
     FM141700 35018G27KT P6SM BKN070
     FM150100 VRB03KT P6SM FEW100=



000
FTUS43 KICT 141100
TAFHUT
TAF
KHUT 141132Z 1412/1512 35018G26KT P6SM -SN OVC040
      TEMPO 1412/1414 3SM BR OVC010
     FM141400 36023G33KT P6SM BKN060
     FM150000 32009KT P6SM SCT100
     FM150500 27006KT P6SM SKC=



000
FTUS43 KICT 141100
TAFSLN
TAF
KSLN 141132Z 1412/1512 35021G30KT P6SM -SN BKN080
     FM141400 35020G30KT P6SM BKN080
     FM141800 35017G25KT P6SM SCT120
     FM150100 30008KT P6SM SCT120=



000
FTUS43 KICT 141100
TAFRSL
TAF
KRSL 141132Z 1412/1512 35022G31KT P6SM BKN080
     FM141800 34017G25KT P6SM SCT120
     FM150100 30008KT P6SM SCT120=



000
FTUS43 KICT 141100
TAFCNU
TAF
KCNU 141132Z 1412/1512 34020G28KT P6SM OVC014
     FM141300 35024G33KT 5SM -SN OVC012
      TEMPO 1413/1415 2SM -SN OVC009
     FM141500 36023G33KT 5SM -RASN BKN009 OVC014
     FM141700 34020G30KT 5SM -RA OVC012
     FM141900 34018G25KT P6SM OVC040
     FM150100 VRB03KT P6SM SKC=



000
FTUS43 KICT 141100
TAFICT
TAF
KICT 141132Z 1412/1512 35022G31KT 3SM -SN BR OVC025
      TEMPO 1412/1415 1 1/2SM -SN BR OVC009
     FM141500 36021G30KT P6SM SCT012 BKN020
     FM141700 35018G27KT P6SM SCT020 BKN050
     FM150100 VRB03KT P6SM FEW100=



000
FTUS43 KICT 140900 AAA
TAFSLN
TAF AMD
KSLN 140900Z 1409/1506 35022G31KT P6SM SCT009 OVC018
      TEMPO 1409/1411 1 1/2SM -SN BR OVC012
     FM141100 35021G30KT P6SM SCT012 BKN035
     FM141600 35017G25KT P6SM SCT120=



000
FTUS43 KICT 140800 AAA
TAFICT
TAF AMD
KICT 140815Z 1408/1506 35021G30KT P6SM SCT009 OVC014
      TEMPO 1408/1410 1 1/2SM -SN BR SCT007 OVC012
     FM141000 35022G31KT 3SM -SN BR OVC009
     FM141500 36021G30KT P6SM SCT012 BKN020
     FM141700 35018G27KT P6SM SCT020 BKN040
     FM150000 32009KT P6SM SCT100=



000
FTUS43 KICT 140800 AAA
TAFHUT
TAF AMD
KHUT 140813Z 1408/1506 35022G31KT P6SM SCT009 OVC025
      TEMPO 1408/1410 1SM -SN BR BKN008 OVC012
     FM141000 35020G30KT 3SM -SN BR OVC007
     FM141400 36023G33KT P6SM BKN020
     FM141600 36018G26KT P6SM SCT020 BKN035
     FM150000 32009KT P6SM SCT100=



000
FTUS43 KICT 140500
TAFHUT
TAF
KHUT 140522Z 1406/1506 35022G31KT P6SM SCT009 OVC012
      TEMPO 1406/1410 3SM -SN BR BKN008 OVC012
     FM141000 35020G30KT 3SM -SN BR OVC007
     FM141400 36023G33KT P6SM BKN020
     FM141600 36018G26KT P6SM SCT020 BKN035
     FM150000 32009KT P6SM SCT100=



000
FTUS43 KICT 140500
TAFSLN
TAF
KSLN 140522Z 1406/1506 35022G31KT P6SM SCT009 OVC018
      TEMPO 1407/1410 5SM -SN BR OVC012
     FM141000 35021G30KT P6SM SCT012 BKN035
     FM141600 35017G25KT P6SM SCT120=



000
FTUS43 KICT 140500
TAFRSL
TAF
KRSL 140522Z 1406/1506 36022G31KT P6SM SCT025 OVC035
      TEMPO 1406/1409 5SM -SN BKN025
     FM140900 35022G31KT P6SM SCT030 BKN060
     FM141800 34017G25KT P6SM SCT120=



000
FTUS43 KICT 140500
TAFCNU
TAF
KCNU 140522Z 1406/1506 34020G28KT P6SM OVC014
     FM141300 35024G33KT 5SM -RA OVC012
     FM141500 36023G33KT 5SM -RASN BKN009 OVC014
     FM141800 34020G30KT 5SM -RA OVC012
     FM142300 33012KT P6SM SCT020 BKN035=



000
FTUS43 KICT 140500
TAFICT
TAF
KICT 140522Z 1406/1506 35021G30KT P6SM SCT009 OVC014
      TEMPO 1408/1410 5SM -SN BR SCT007 OVC012
     FM141000 35022G31KT 3SM -SN BR OVC009
     FM141500 36021G30KT P6SM SCT012 BKN020
     FM141700 35018G27KT P6SM SCT020 BKN040
     FM150000 32009KT P6SM SCT100=



000
FTUS43 KICT 132300
TAFSLN
TAF
KSLN 132334Z 1400/1424 34026G34KT P6SM SCT009 OVC015
      TEMPO 1401/1404 4SM -SN BR OVC012
     FM141000 35022G31KT P6SM SCT012 BKN035=



000
FTUS43 KICT 132300
TAFICT
TAF
KICT 132334Z 1400/1424 35027G36KT P6SM SCT009 OVC014
     FM140400 36023G34KT P6SM OVC012
     FM141000 35022G32KT 4SM -SN BKN009 OVC012
     FM141500 36025G36KT P6SM BKN020
     FM141900 36024G34KT P6SM SCT020 BKN035=



000
FTUS43 KICT 132300
TAFCNU
TAF
KCNU 132334Z 1400/1424 17012KT P6SM BKN020
     FM140030 34023G33KT P6SM OVC012
     FM141300 35022G32KT 5SM -RA OVC012=



000
FTUS43 KICT 132300
TAFHUT
TAF
KHUT 132334Z 1400/1424 35026G36KT P6SM SCT009 OVC012
     FM140900 35023G33KT 3SM -SN BR BKN007 OVC012
     FM141400 36023G33KT P6SM BKN020
     FM141800 36018G26KT P6SM SCT020 BKN035=



000
FTUS43 KICT 132300
TAFRSL
TAF
KRSL 132334Z 1400/1424 36025G34KT P6SM SCT007 OVC013
      TEMPO 1400/1402 4SM -SN BR
     FM140800 35022G31KT P6SM SCT020 BKN035=



000
FTUS43 KICT 132000 AAA
TAFCNU
TAF AMD
KCNU 132050Z 1321/1418 18023G32KT P6SM VCTS BKN040CB
      TEMPO 1321/1323 VRB25G35KT 2SM +TSRA OVC015CB
     FM140000 34020G30KT P6SM OVC015=



000
FTUS43 KICT 131900 AAA
TAFRSL
TAF AMD
KRSL 131909Z 1319/1418 36025G36KT P6SM SCT009 OVC015
     FM141000 35024G34KT P6SM SCT030 BKN060=



000
FTUS43 KICT 131900 AAA
TAFICT
TAF AMD
KICT 131906Z 1319/1418 34023G33KT P6SM SCT040 BKN100
     FM132100 34026G34KT P6SM SCT009 OVC015
     FM140900 35022G32KT 4SM -SN SCT009 OVC015=



000
FTUS43 KICT 131700 AAA
TAFICT
TAF AMD
KICT 131753Z 1318/1418 20023G32KT P6SM VCTS SCT045CB BKN100
      TEMPO 1318/1319 TS BKN045CB
     FM132000 34022G30KT P6SM SCT015 OVC030
     FM132200 34025G35KT 6SM BR SCT009 OVC015
     FM140900 35022G32KT 4SM -SN SCT009 OVC015=



000
FTUS43 KICT 131700
TAFRSL
TAF
KRSL 131733Z 1318/1418 36024G35KT 5SM -DZ BR OVC009
     FM132100 34025G35KT 6SM BR SCT009 OVC015
     FM141000 35024G34KT P6SM SCT030 BKN060=



000
FTUS43 KICT 131700
TAFSLN
TAF
KSLN 131733Z 1318/1418 34025G33KT P6SM SCT009 OVC015
     FM140600 35025G35KT 4SM -SN BR SCT009 OVC015=



000
FTUS43 KICT 131700
TAFCNU
TAF
KCNU 131733Z 1318/1418 18023G32KT P6SM VCTS SCT025 BKN045CB
     FM140000 34020G30KT 6SM BR OVC015=



000
FTUS43 KICT 131700
TAFICT
TAF
KICT 131733Z 1318/1418 20023G32KT P6SM VCTS SCT045CB BKN100
     FM132000 34022G30KT P6SM SCT015 OVC030
     FM132200 34025G35KT 6SM BR SCT009 OVC015
     FM140900 35022G32KT 4SM -SN SCT009 OVC015=



000
FTUS43 KICT 131700
TAFHUT
TAF
KHUT 131733Z 1318/1418 34026G35KT 6SM BR SCT009 OVC015
     FM140800 35022G32KT 4SM -SN BR SCT009 OVC015=



000
FTUS43 KICT 131700 AAA
TAFCNU
TAF AMD
KCNU 131707Z 1317/1412 18022G29KT P6SM VCTS SCT040CB BKN100
      TEMPO 1317/1318 -TSRA BKN040CB
     FM140200 29015KT P6SM SCT025 BKN035=



000
FTUS43 KICT 131600 AAA
TAFICT
TAF AMD
KICT 131602Z 1316/1412 20023G32KT P6SM VCSH SCT030 BKN100
      TEMPO 1316/1320 BKN030
     FM132000 34025G33KT P6SM SCT015 OVC025
     FM140900 34020G30KT 5SM -RASN BR OVC020=



000
FTUS43 KICT 131500 AAA
TAFHUT
TAF AMD
KHUT 131554Z 1316/1412 20016G23KT P6SM SCT030 BKN100
     FM131800 34027G36KT P6SM OVC015
     FM140900 35020G30KT 5SM -RASN BR OVC025=



000
FTUS43 KICT 131500 AAA
TAFSLN
TAF AMD
KSLN 131549Z 1316/1412 01017G24KT 6SM HZ SCT015 BKN030
     FM131800 36023G33KT P6SM SCT009 OVC015
     FM140500 36022G30KT 4SM -RASN BR OVC012
     FM140900 36020G30KT 4SM -SN BR OVC012=



000
FTUS43 KICT 131400 AAA
TAFRSL
TAF AMD
KRSL 131433Z 1315/1412 01025G37KT P6SM OVC015
     FM140300 36019G28KT 4SM -RASN BR OVC012
     FM140900 36020G30KT 4SM -SN BR OVC012=



    US Dept of Commerce
    National Oceanic and Atmospheric Administration
    National Weather Service
    1325 East West Highway
    Silver Spring, MD 20910
    Page Author: NWS Internet Services Team
Disclaimer
Information Quality
Credits
Glossary
Privacy Policy
Freedom of Information Act (FOIA)
About Us
Career Opportunities